sensor_id;sensor_type;location;lat;lon;timestamp;P1;durP1;ratioP1;P2;durP2;ratioP2
11653;SDS011;5883;48.818;9.114;2022-08-01T00:01:52;1.83;;;1.65;;
11653;SDS011;5883;48.818;9.114;2022-08-01T00:04:18;1.90;;;1.50;;
11653;SDS011;5883;48.818;9.114;2022-08-01T00:06:45;2.42;;;1.70;;
11653;SDS011;5883;48.818;9.114;2022-08-01T00:09:11;5.40;;;1.77;;
11653;SDS011;5883;48.818;9.114;2022-08-01T00:11:37;2.35;;;1.80;;
11653;SDS011;5883;48.818;9.114;2022-08-01T00:14:04;1.58;;;1.40;;
11653;SDS011;5883;48.818;9.114;2022-08-01T00:16:30;1.77;;;1.33;;
11653;SDS011;5883;48.818;9.114;2022-08-01T00:18:58;2.15;;;1.60;;
11653;SDS011;5883;48.818;9.114;2022-08-01T00:21:25;1.95;;;1.50;;
11653;SDS011;5883;48.818;9.114;2022-08-01T00:23:51;1.88;;;1.63;;
11653;SDS011;5883;48.818;9.114;2022-08-01T00:26:18;2.00;;;1.60;;
11653;SDS011;5883;48.818;9.114;2022-08-01T00:28:44;5.38;;;1.45;;
11653;SDS011;5883;48.818;9.114;2022-08-01T00:31:11;1.70;;;1.60;;
11653;SDS011;5883;48.818;9.114;2022-08-01T00:33:37;4.68;;;1.67;;
11653;SDS011;5883;48.818;9.114;2022-08-01T00:36:05;5.07;;;1.88;;
11653;SDS011;5883;48.818;9.114;2022-08-01T00:38:32;3.20;;;1.95;;
11653;SDS011;5883;48.818;9.114;2022-08-01T00:40:58;4.65;;;1.88;;
11653;SDS011;5883;48.818;9.114;2022-08-01T00:43:25;2.30;;;1.92;;
11653;SDS011;5883;48.818;9.114;2022-08-01T00:45:51;4.72;;;1.88;;
11653;SDS011;5883;48.818;9.114;2022-08-01T00:48:18;1.67;;;1.50;;
11653;SDS011;5883;48.818;9.114;2022-08-01T00:50:44;2.17;;;1.98;;
11653;SDS011;5883;48.818;9.114;2022-08-01T00:53:12;2.63;;;1.65;;
11653;SDS011;5883;48.818;9.114;2022-08-01T00:55:39;2.33;;;1.55;;
11653;SDS011;5883;48.818;9.114;2022-08-01T00:58:05;2.83;;;1.80;;
11653;SDS011;5883;48.818;9.114;2022-08-01T01:00:33;2.88;;;1.83;;
11653;SDS011;5883;48.818;9.114;2022-08-01T01:02:59;4.30;;;1.80;;
11653;SDS011;5883;48.818;9.114;2022-08-01T01:05:26;2.80;;;1.80;;
11653;SDS011;5883;48.818;9.114;2022-08-01T01:07:53;1.92;;;1.50;;
11653;SDS011;5883;48.818;9.114;2022-08-01T01:10:24;2.13;;;1.92;;
11653;SDS011;5883;48.818;9.114;2022-08-01T01:12:53;2.63;;;2.08;;
11653;SDS011;5883;48.818;9.114;2022-08-01T01:15:22;1.75;;;1.60;;
11653;SDS011;5883;48.818;9.114;2022-08-01T01:17:51;1.83;;;1.70;;
11653;SDS011;5883;48.818;9.114;2022-08-01T01:20:18;2.13;;;1.70;;
11653;SDS011;5883;48.818;9.114;2022-08-01T01:25:49;10.25;;;2.08;;
11653;SDS011;5883;48.818;9.114;2022-08-01T01:28:20;2.72;;;1.80;;
11653;SDS011;5883;48.818;9.114;2022-08-01T01:30:51;6.53;;;1.88;;
11653;SDS011;5883;48.818;9.114;2022-08-01T01:33:18;2.08;;;1.88;;
11653;SDS011;5883;48.818;9.114;2022-08-01T01:35:47;2.53;;;1.67;;
11653;SDS011;5883;48.818;9.114;2022-08-01T01:38:15;1.98;;;1.70;;
11653;SDS011;5883;48.818;9.114;2022-08-01T01:40:43;2.90;;;1.85;;
11653;SDS011;5883;48.818;9.114;2022-08-01T01:43:10;2.35;;;2.10;;
11653;SDS011;5883;48.818;9.114;2022-08-01T01:45:37;1.92;;;1.60;;
11653;SDS011;5883;48.818;9.114;2022-08-01T01:48:06;2.08;;;1.77;;
11653;SDS011;5883;48.818;9.114;2022-08-01T01:50:33;2.20;;;2.00;;
11653;SDS011;5883;48.818;9.114;2022-08-01T01:53:01;2.38;;;1.92;;
11653;SDS011;5883;48.818;9.114;2022-08-01T01:55:28;2.13;;;1.70;;
11653;SDS011;5883;48.818;9.114;2022-08-01T01:57:56;2.17;;;1.90;;
11653;SDS011;5883;48.818;9.114;2022-08-01T02:00:23;3.10;;;2.03;;
11653;SDS011;5883;48.818;9.114;2022-08-01T02:02:50;2.10;;;1.90;;
11653;SDS011;5883;48.818;9.114;2022-08-01T02:05:18;4.25;;;1.95;;
11653;SDS011;5883;48.818;9.114;2022-08-01T02:07:45;2.10;;;1.90;;
11653;SDS011;5883;48.818;9.114;2022-08-01T02:10:13;1.85;;;1.70;;
11653;SDS011;5883;48.818;9.114;2022-08-01T02:12:41;2.67;;;2.15;;
11653;SDS011;5883;48.818;9.114;2022-08-01T02:15:10;2.47;;;2.15;;
11653;SDS011;5883;48.818;9.114;2022-08-01T02:17:39;1.63;;;1.50;;
11653;SDS011;5883;48.818;9.114;2022-08-01T02:20:07;3.15;;;1.92;;
11653;SDS011;5883;48.818;9.114;2022-08-01T02:22:36;3.92;;;1.80;;
11653;SDS011;5883;48.818;9.114;2022-08-01T02:25:06;2.22;;;2.00;;
11653;SDS011;5883;48.818;9.114;2022-08-01T02:27:37;3.35;;;2.00;;
11653;SDS011;5883;48.818;9.114;2022-08-01T02:30:07;2.35;;;2.00;;
11653;SDS011;5883;48.818;9.114;2022-08-01T02:32:36;5.50;;;1.83;;
11653;SDS011;5883;48.818;9.114;2022-08-01T02:35:05;2.30;;;2.10;;
11653;SDS011;5883;48.818;9.114;2022-08-01T02:37:33;3.00;;;1.85;;
11653;SDS011;5883;48.818;9.114;2022-08-01T02:40:02;2.33;;;2.00;;
11653;SDS011;5883;48.818;9.114;2022-08-01T02:42:31;2.80;;;1.80;;
11653;SDS011;5883;48.818;9.114;2022-08-01T02:44:58;2.00;;;1.80;;
11653;SDS011;5883;48.818;9.114;2022-08-01T02:47:25;2.60;;;1.95;;
11653;SDS011;5883;48.818;9.114;2022-08-01T02:49:52;2.90;;;1.90;;
11653;SDS011;5883;48.818;9.114;2022-08-01T02:52:20;2.00;;;1.80;;
11653;SDS011;5883;48.818;9.114;2022-08-01T02:54:53;3.60;;;2.10;;
11653;SDS011;5883;48.818;9.114;2022-08-01T02:57:21;2.30;;;1.90;;
11653;SDS011;5883;48.818;9.114;2022-08-01T02:59:48;3.35;;;1.85;;
11653;SDS011;5883;48.818;9.114;2022-08-01T03:02:15;2.25;;;1.92;;
11653;SDS011;5883;48.818;9.114;2022-08-01T03:04:42;4.70;;;2.22;;
11653;SDS011;5883;48.818;9.114;2022-08-01T03:07:09;3.67;;;1.98;;
11653;SDS011;5883;48.818;9.114;2022-08-01T03:09:37;2.13;;;1.90;;
11653;SDS011;5883;48.818;9.114;2022-08-01T03:12:06;2.67;;;2.05;;
11653;SDS011;5883;48.818;9.114;2022-08-01T03:14:36;4.03;;;2.10;;
11653;SDS011;5883;48.818;9.114;2022-08-01T03:17:04;2.25;;;1.85;;
11653;SDS011;5883;48.818;9.114;2022-08-01T03:19:32;3.45;;;2.28;;
11653;SDS011;5883;48.818;9.114;2022-08-01T03:21:59;3.53;;;2.30;;
11653;SDS011;5883;48.818;9.114;2022-08-01T03:24:28;2.75;;;1.70;;
11653;SDS011;5883;48.818;9.114;2022-08-01T03:26:55;2.10;;;1.90;;
11653;SDS011;5883;48.818;9.114;2022-08-01T03:29:22;1.70;;;1.60;;
11653;SDS011;5883;48.818;9.114;2022-08-01T03:31:52;2.25;;;1.77;;
11653;SDS011;5883;48.818;9.114;2022-08-01T03:34:19;2.40;;;2.20;;
11653;SDS011;5883;48.818;9.114;2022-08-01T03:36:47;2.08;;;1.88;;
11653;SDS011;5883;48.818;9.114;2022-08-01T03:39:14;2.08;;;1.88;;
11653;SDS011;5883;48.818;9.114;2022-08-01T03:41:43;2.30;;;1.90;;
11653;SDS011;5883;48.818;9.114;2022-08-01T03:44:13;4.25;;;2.22;;
11653;SDS011;5883;48.818;9.114;2022-08-01T03:46:42;4.15;;;2.08;;
11653;SDS011;5883;48.818;9.114;2022-08-01T03:49:13;2.35;;;1.90;;
11653;SDS011;5883;48.818;9.114;2022-08-01T03:51:40;1.92;;;1.65;;
11653;SDS011;5883;48.818;9.114;2022-08-01T03:54:07;2.28;;;2.08;;
11653;SDS011;5883;48.818;9.114;2022-08-01T03:56:34;2.28;;;2.00;;
11653;SDS011;5883;48.818;9.114;2022-08-01T03:59:03;2.90;;;2.00;;
11653;SDS011;5883;48.818;9.114;2022-08-01T04:01:30;3.30;;;2.17;;
11653;SDS011;5883;48.818;9.114;2022-08-01T04:03:58;4.07;;;1.90;;
11653;SDS011;5883;48.818;9.114;2022-08-01T04:06:26;5.05;;;2.47;;
11653;SDS011;5883;48.818;9.114;2022-08-01T04:08:52;2.70;;;1.90;;
11653;SDS011;5883;48.818;9.114;2022-08-01T04:11:23;2.30;;;1.90;;
11653;SDS011;5883;48.818;9.114;2022-08-01T04:13:50;4.88;;;1.92;;
11653;SDS011;5883;48.818;9.114;2022-08-01T04:16:17;11.02;;;2.75;;
11653;SDS011;5883;48.818;9.114;2022-08-01T04:18:43;2.40;;;1.83;;
11653;SDS011;5883;48.818;9.114;2022-08-01T04:21:10;2.35;;;1.70;;
11653;SDS011;5883;48.818;9.114;2022-08-01T04:23:38;2.25;;;1.90;;
11653;SDS011;5883;48.818;9.114;2022-08-01T04:26:05;2.03;;;1.70;;
11653;SDS011;5883;48.818;9.114;2022-08-01T04:28:33;2.17;;;1.98;;
11653;SDS011;5883;48.818;9.114;2022-08-01T04:31:01;2.50;;;1.98;;
11653;SDS011;5883;48.818;9.114;2022-08-01T04:33:29;2.63;;;1.83;;
11653;SDS011;5883;48.818;9.114;2022-08-01T04:35:57;2.00;;;1.77;;
11653;SDS011;5883;48.818;9.114;2022-08-01T04:38:25;2.05;;;1.85;;
11653;SDS011;5883;48.818;9.114;2022-08-01T04:40:54;3.42;;;2.10;;
11653;SDS011;5883;48.818;9.114;2022-08-01T04:43:21;2.40;;;1.92;;
11653;SDS011;5883;48.818;9.114;2022-08-01T04:45:48;2.50;;;1.73;;
11653;SDS011;5883;48.818;9.114;2022-08-01T04:48:15;2.03;;;1.70;;
11653;SDS011;5883;48.818;9.114;2022-08-01T04:50:42;2.15;;;1.75;;
11653;SDS011;5883;48.818;9.114;2022-08-01T04:53:12;3.83;;;2.20;;
11653;SDS011;5883;48.818;9.114;2022-08-01T04:55:38;4.90;;;1.60;;
11653;SDS011;5883;48.818;9.114;2022-08-01T04:58:06;1.88;;;1.70;;
11653;SDS011;5883;48.818;9.114;2022-08-01T05:00:34;2.40;;;1.80;;
11653;SDS011;5883;48.818;9.114;2022-08-01T05:03:00;2.08;;;1.60;;
11653;SDS011;5883;48.818;9.114;2022-08-01T05:05:27;3.17;;;1.60;;
11653;SDS011;5883;48.818;9.114;2022-08-01T05:07:53;5.28;;;1.83;;
11653;SDS011;5883;48.818;9.114;2022-08-01T05:10:20;1.73;;;1.40;;
11653;SDS011;5883;48.818;9.114;2022-08-01T05:12:47;2.15;;;1.52;;
11653;SDS011;5883;48.818;9.114;2022-08-01T05:15:15;2.03;;;1.45;;
11653;SDS011;5883;48.818;9.114;2022-08-01T05:17:41;2.40;;;1.75;;
11653;SDS011;5883;48.818;9.114;2022-08-01T05:20:08;2.08;;;1.45;;
11653;SDS011;5883;48.818;9.114;2022-08-01T05:22:35;1.55;;;1.30;;
11653;SDS011;5883;48.818;9.114;2022-08-01T05:25:02;1.83;;;1.40;;
11653;SDS011;5883;48.818;9.114;2022-08-01T05:27:30;2.92;;;1.63;;
11653;SDS011;5883;48.818;9.114;2022-08-01T05:29:56;2.28;;;1.42;;
11653;SDS011;5883;48.818;9.114;2022-08-01T05:32:24;1.33;;;1.17;;
11653;SDS011;5883;48.818;9.114;2022-08-01T05:34:50;1.92;;;1.40;;
11653;SDS011;5883;48.818;9.114;2022-08-01T05:37:17;4.60;;;1.30;;
11653;SDS011;5883;48.818;9.114;2022-08-01T05:39:44;1.42;;;1.20;;
11653;SDS011;5883;48.818;9.114;2022-08-01T05:42:10;1.60;;;1.38;;
11653;SDS011;5883;48.818;9.114;2022-08-01T05:44:37;3.83;;;1.38;;
11653;SDS011;5883;48.818;9.114;2022-08-01T05:47:03;1.58;;;1.30;;
11653;SDS011;5883;48.818;9.114;2022-08-01T05:49:31;1.30;;;1.05;;
11653;SDS011;5883;48.818;9.114;2022-08-01T05:51:58;1.40;;;1.08;;
11653;SDS011;5883;48.818;9.114;2022-08-01T05:54:26;1.63;;;0.80;;
11653;SDS011;5883;48.818;9.114;2022-08-01T05:56:52;1.30;;;1.00;;
11653;SDS011;5883;48.818;9.114;2022-08-01T05:59:20;0.82;;;0.82;;
11653;SDS011;5883;48.818;9.114;2022-08-01T06:01:46;1.25;;;0.90;;
11653;SDS011;5883;48.818;9.114;2022-08-01T06:04:12;1.55;;;0.90;;
11653;SDS011;5883;48.818;9.114;2022-08-01T06:06:40;3.47;;;1.13;;
11653;SDS011;5883;48.818;9.114;2022-08-01T06:09:07;1.85;;;1.08;;
11653;SDS011;5883;48.818;9.114;2022-08-01T06:11:33;0.93;;;0.90;;
11653;SDS011;5883;48.818;9.114;2022-08-01T06:14:00;1.55;;;1.00;;
11653;SDS011;5883;48.818;9.114;2022-08-01T06:16:26;1.98;;;1.10;;
11653;SDS011;5883;48.818;9.114;2022-08-01T06:18:53;1.80;;;0.95;;
11653;SDS011;5883;48.818;9.114;2022-08-01T06:21:19;1.75;;;1.10;;
11653;SDS011;5883;48.818;9.114;2022-08-01T06:23:47;1.45;;;0.80;;
11653;SDS011;5883;48.818;9.114;2022-08-01T06:26:16;3.38;;;1.20;;
11653;SDS011;5883;48.818;9.114;2022-08-01T06:28:43;1.58;;;1.00;;
11653;SDS011;5883;48.818;9.114;2022-08-01T06:31:09;2.03;;;1.02;;
11653;SDS011;5883;48.818;9.114;2022-08-01T06:33:37;1.67;;;0.82;;
11653;SDS011;5883;48.818;9.114;2022-08-01T06:36:04;1.50;;;0.93;;
11653;SDS011;5883;48.818;9.114;2022-08-01T06:38:30;1.88;;;1.00;;
11653;SDS011;5883;48.818;9.114;2022-08-01T06:40:58;2.58;;;1.20;;
11653;SDS011;5883;48.818;9.114;2022-08-01T06:43:25;2.92;;;1.23;;
11653;SDS011;5883;48.818;9.114;2022-08-01T06:45:51;2.60;;;0.82;;
11653;SDS011;5883;48.818;9.114;2022-08-01T06:48:18;1.65;;;0.90;;
11653;SDS011;5883;48.818;9.114;2022-08-01T06:50:45;1.67;;;0.90;;
11653;SDS011;5883;48.818;9.114;2022-08-01T06:53:11;1.92;;;1.10;;
11653;SDS011;5883;48.818;9.114;2022-08-01T06:55:38;1.77;;;0.88;;
11653;SDS011;5883;48.818;9.114;2022-08-01T06:58:06;1.02;;;0.70;;
11653;SDS011;5883;48.818;9.114;2022-08-01T07:00:33;1.45;;;0.90;;
11653;SDS011;5883;48.818;9.114;2022-08-01T07:02:59;0.93;;;0.70;;
11653;SDS011;5883;48.818;9.114;2022-08-01T07:05:26;1.05;;;0.63;;
11653;SDS011;5883;48.818;9.114;2022-08-01T07:07:52;1.27;;;0.90;;
11653;SDS011;5883;48.818;9.114;2022-08-01T07:10:19;1.10;;;0.80;;
11653;SDS011;5883;48.818;9.114;2022-08-01T07:12:45;3.20;;;0.88;;
11653;SDS011;5883;48.818;9.114;2022-08-01T07:15:13;1.10;;;1.00;;
11653;SDS011;5883;48.818;9.114;2022-08-01T07:17:41;1.25;;;0.82;;
11653;SDS011;5883;48.818;9.114;2022-08-01T07:20:08;5.38;;;0.98;;
11653;SDS011;5883;48.818;9.114;2022-08-01T07:22:35;2.75;;;1.00;;
11653;SDS011;5883;48.818;9.114;2022-08-01T07:25:02;2.25;;;1.10;;
11653;SDS011;5883;48.818;9.114;2022-08-01T07:27:29;1.67;;;0.95;;
11653;SDS011;5883;48.818;9.114;2022-08-01T07:29:55;0.90;;;0.80;;
11653;SDS011;5883;48.818;9.114;2022-08-01T07:32:23;1.27;;;0.88;;
11653;SDS011;5883;48.818;9.114;2022-08-01T07:34:50;1.52;;;1.00;;
11653;SDS011;5883;48.818;9.114;2022-08-01T07:37:16;1.90;;;1.13;;
11653;SDS011;5883;48.818;9.114;2022-08-01T07:39:43;2.50;;;1.05;;
11653;SDS011;5883;48.818;9.114;2022-08-01T07:42:10;2.80;;;1.00;;
11653;SDS011;5883;48.818;9.114;2022-08-01T07:44:36;1.60;;;0.98;;
11653;SDS011;5883;48.818;9.114;2022-08-01T07:47:03;2.92;;;0.98;;
11653;SDS011;5883;48.818;9.114;2022-08-01T07:49:31;1.83;;;0.98;;
11653;SDS011;5883;48.818;9.114;2022-08-01T07:51:58;1.60;;;1.35;;
11653;SDS011;5883;48.818;9.114;2022-08-01T07:54:24;0.98;;;0.80;;
11653;SDS011;5883;48.818;9.114;2022-08-01T07:56:52;3.05;;;1.00;;
11653;SDS011;5883;48.818;9.114;2022-08-01T07:59:19;3.90;;;0.90;;
11653;SDS011;5883;48.818;9.114;2022-08-01T08:01:48;4.00;;;0.93;;
11653;SDS011;5883;48.818;9.114;2022-08-01T08:04:14;2.15;;;1.10;;
11653;SDS011;5883;48.818;9.114;2022-08-01T08:06:42;2.65;;;1.02;;
11653;SDS011;5883;48.818;9.114;2022-08-01T08:09:09;2.03;;;0.65;;
11653;SDS011;5883;48.818;9.114;2022-08-01T08:11:36;1.38;;;1.15;;
11653;SDS011;5883;48.818;9.114;2022-08-01T08:14:03;1.70;;;1.05;;
11653;SDS011;5883;48.818;9.114;2022-08-01T08:16:29;5.07;;;1.00;;
11653;SDS011;5883;48.818;9.114;2022-08-01T08:18:56;3.45;;;1.20;;
11653;SDS011;5883;48.818;9.114;2022-08-01T08:21:23;2.45;;;0.90;;
11653;SDS011;5883;48.818;9.114;2022-08-01T08:23:51;2.88;;;0.90;;
11653;SDS011;5883;48.818;9.114;2022-08-01T08:26:35;1.00;;;0.90;;
11653;SDS011;5883;48.818;9.114;2022-08-01T08:29:02;1.17;;;1.00;;
11653;SDS011;5883;48.818;9.114;2022-08-01T08:31:29;1.33;;;1.10;;
11653;SDS011;5883;48.818;9.114;2022-08-01T08:33:55;1.35;;;1.20;;
11653;SDS011;5883;48.818;9.114;2022-08-01T08:36:22;1.25;;;1.15;;
11653;SDS011;5883;48.818;9.114;2022-08-01T08:38:49;2.10;;;1.58;;
11653;SDS011;5883;48.818;9.114;2022-08-01T08:41:16;2.70;;;1.70;;
11653;SDS011;5883;48.818;9.114;2022-08-01T08:43:43;2.00;;;1.80;;
11653;SDS011;5883;48.818;9.114;2022-08-01T08:46:10;1.50;;;1.40;;
11653;SDS011;5883;48.818;9.114;2022-08-01T08:48:38;2.20;;;1.65;;
11653;SDS011;5883;48.818;9.114;2022-08-01T08:51:05;3.03;;;1.85;;
11653;SDS011;5883;48.818;9.114;2022-08-01T08:53:33;4.78;;;2.47;;
11653;SDS011;5883;48.818;9.114;2022-08-01T08:56:01;4.72;;;2.55;;
11653;SDS011;5883;48.818;9.114;2022-08-01T08:58:30;3.63;;;3.03;;
11653;SDS011;5883;48.818;9.114;2022-08-01T09:00:59;4.07;;;3.00;;
11653;SDS011;5883;48.818;9.114;2022-08-01T09:03:25;8.23;;;3.45;;
11653;SDS011;5883;48.818;9.114;2022-08-01T09:05:52;4.97;;;3.35;;
11653;SDS011;5883;48.818;9.114;2022-08-01T09:08:19;3.90;;;3.50;;
11653;SDS011;5883;48.818;9.114;2022-08-01T09:10:45;7.43;;;2.85;;
11653;SDS011;5883;48.818;9.114;2022-08-01T09:13:13;5.25;;;2.08;;
11653;SDS011;5883;48.818;9.114;2022-08-01T09:15:45;2.97;;;1.45;;
11653;SDS011;5883;48.818;9.114;2022-08-01T09:18:28;3.38;;;2.15;;
11653;SDS011;5883;48.818;9.114;2022-08-01T09:21:11;4.55;;;1.60;;
11653;SDS011;5883;48.818;9.114;2022-08-01T09:23:40;3.38;;;2.13;;
11653;SDS011;5883;48.818;9.114;2022-08-01T09:26:07;2.78;;;1.65;;
11653;SDS011;5883;48.818;9.114;2022-08-01T09:28:34;3.58;;;1.95;;
11653;SDS011;5883;48.818;9.114;2022-08-01T09:31:06;3.88;;;1.60;;
11653;SDS011;5883;48.818;9.114;2022-08-01T09:33:46;2.15;;;1.70;;
11653;SDS011;5883;48.818;9.114;2022-08-01T09:36:13;2.47;;;2.28;;
11653;SDS011;5883;48.818;9.114;2022-08-01T09:38:40;2.28;;;1.73;;
11653;SDS011;5883;48.818;9.114;2022-08-01T09:41:07;2.25;;;1.55;;
11653;SDS011;5883;48.818;9.114;2022-08-01T09:43:33;3.05;;;1.63;;
11653;SDS011;5883;48.818;9.114;2022-08-01T09:46:04;3.85;;;2.05;;
11653;SDS011;5883;48.818;9.114;2022-08-01T09:48:33;3.03;;;1.98;;
11653;SDS011;5883;48.818;9.114;2022-08-01T09:51:02;3.00;;;2.70;;
11653;SDS011;5883;48.818;9.114;2022-08-01T09:53:37;3.88;;;2.25;;
11653;SDS011;5883;48.818;9.114;2022-08-01T09:56:09;4.05;;;2.30;;
11653;SDS011;5883;48.818;9.114;2022-08-01T09:58:44;3.05;;;2.00;;
11653;SDS011;5883;48.818;9.114;2022-08-01T10:01:14;3.25;;;2.50;;
11653;SDS011;5883;48.818;9.114;2022-08-01T10:03:42;2.35;;;2.08;;
11653;SDS011;5883;48.818;9.114;2022-08-01T10:06:18;1.98;;;1.60;;
11653;SDS011;5883;48.818;9.114;2022-08-01T10:08:45;3.03;;;1.85;;
11653;SDS011;5883;48.818;9.114;2022-08-01T10:11:12;2.20;;;1.73;;
11653;SDS011;5883;48.818;9.114;2022-08-01T10:13:39;2.70;;;1.50;;
11653;SDS011;5883;48.818;9.114;2022-08-01T10:16:05;2.50;;;1.45;;
11653;SDS011;5883;48.818;9.114;2022-08-01T10:18:33;4.03;;;2.08;;
11653;SDS011;5883;48.818;9.114;2022-08-01T10:21:01;3.38;;;1.55;;
11653;SDS011;5883;48.818;9.114;2022-08-01T10:23:30;2.30;;;1.70;;
11653;SDS011;5883;48.818;9.114;2022-08-01T10:25:59;2.70;;;1.38;;
11653;SDS011;5883;48.818;9.114;2022-08-01T10:28:26;2.50;;;1.38;;
11653;SDS011;5883;48.818;9.114;2022-08-01T10:30:56;1.40;;;1.30;;
11653;SDS011;5883;48.818;9.114;2022-08-01T10:33:23;3.63;;;1.40;;
11653;SDS011;5883;48.818;9.114;2022-08-01T10:35:49;2.78;;;1.25;;
11653;SDS011;5883;48.818;9.114;2022-08-01T10:38:17;1.60;;;1.30;;
11653;SDS011;5883;48.818;9.114;2022-08-01T10:40:44;2.60;;;2.15;;
11653;SDS011;5883;48.818;9.114;2022-08-01T10:43:11;2.25;;;1.80;;
11653;SDS011;5883;48.818;9.114;2022-08-01T10:45:37;1.63;;;1.50;;
11653;SDS011;5883;48.818;9.114;2022-08-01T10:48:05;3.50;;;1.70;;
11653;SDS011;5883;48.818;9.114;2022-08-01T10:50:37;2.13;;;1.40;;
11653;SDS011;5883;48.818;9.114;2022-08-01T10:53:12;1.38;;;1.27;;
11653;SDS011;5883;48.818;9.114;2022-08-01T10:55:50;2.80;;;1.50;;
11653;SDS011;5883;48.818;9.114;2022-08-01T10:58:20;4.82;;;1.90;;
11653;SDS011;5883;48.818;9.114;2022-08-01T11:00:47;1.83;;;1.40;;
11653;SDS011;5883;48.818;9.114;2022-08-01T11:03:13;1.70;;;1.60;;
11653;SDS011;5883;48.818;9.114;2022-08-01T11:05:40;14.98;;;2.15;;
11653;SDS011;5883;48.818;9.114;2022-08-01T11:08:09;1.85;;;1.75;;
11653;SDS011;5883;48.818;9.114;2022-08-01T11:10:38;2.50;;;1.63;;
11653;SDS011;5883;48.818;9.114;2022-08-01T11:13:06;1.95;;;1.52;;
11653;SDS011;5883;48.818;9.114;2022-08-01T11:15:33;2.03;;;1.25;;
11653;SDS011;5883;48.818;9.114;2022-08-01T11:18:01;3.20;;;1.48;;
11653;SDS011;5883;48.818;9.114;2022-08-01T11:20:28;1.70;;;1.40;;
11653;SDS011;5883;48.818;9.114;2022-08-01T11:26:06;1.83;;;1.20;;
11653;SDS011;5883;48.818;9.114;2022-08-01T11:28:35;3.35;;;1.30;;
11653;SDS011;5883;48.818;9.114;2022-08-01T11:33:48;3.13;;;1.55;;
11653;SDS011;5883;48.818;9.114;2022-08-01T11:36:18;1.75;;;1.40;;
11653;SDS011;5883;48.818;9.114;2022-08-01T11:38:46;2.78;;;1.60;;
11653;SDS011;5883;48.818;9.114;2022-08-01T11:41:13;3.33;;;1.67;;
11653;SDS011;5883;48.818;9.114;2022-08-01T11:43:55;3.05;;;1.50;;
11653;SDS011;5883;48.818;9.114;2022-08-01T11:49:21;2.47;;;1.60;;
11653;SDS011;5883;48.818;9.114;2022-08-01T11:51:48;5.20;;;1.63;;
11653;SDS011;5883;48.818;9.114;2022-08-01T11:54:15;1.48;;;1.38;;
11653;SDS011;5883;48.818;9.114;2022-08-01T11:56:42;1.20;;;1.10;;
11653;SDS011;5883;48.818;9.114;2022-08-01T11:59:10;3.72;;;1.58;;
11653;SDS011;5883;48.818;9.114;2022-08-01T12:01:37;3.08;;;1.48;;
11653;SDS011;5883;48.818;9.114;2022-08-01T12:04:03;3.08;;;1.33;;
11653;SDS011;5883;48.818;9.114;2022-08-01T12:06:30;5.28;;;1.70;;
11653;SDS011;5883;48.818;9.114;2022-08-01T12:09:08;2.30;;;1.23;;
11653;SDS011;5883;48.818;9.114;2022-08-01T12:11:40;1.73;;;1.58;;
11653;SDS011;5883;48.818;9.114;2022-08-01T12:14:07;1.30;;;1.13;;
11653;SDS011;5883;48.818;9.114;2022-08-01T12:16:35;1.85;;;1.35;;
11653;SDS011;5883;48.818;9.114;2022-08-01T12:19:01;2.50;;;1.40;;
11653;SDS011;5883;48.818;9.114;2022-08-01T12:21:28;2.35;;;1.60;;
11653;SDS011;5883;48.818;9.114;2022-08-01T12:24:04;3.25;;;1.52;;
11653;SDS011;5883;48.818;9.114;2022-08-01T12:26:40;2.05;;;1.45;;
11653;SDS011;5883;48.818;9.114;2022-08-01T12:29:07;3.85;;;1.88;;
11653;SDS011;5883;48.818;9.114;2022-08-01T12:31:35;3.05;;;1.60;;
11653;SDS011;5883;48.818;9.114;2022-08-01T12:36:46;1.63;;;1.23;;
11653;SDS011;5883;48.818;9.114;2022-08-01T12:39:13;3.80;;;1.45;;
11653;SDS011;5883;48.818;9.114;2022-08-01T12:41:39;2.10;;;1.50;;
11653;SDS011;5883;48.818;9.114;2022-08-01T12:44:12;2.25;;;1.65;;
11653;SDS011;5883;48.818;9.114;2022-08-01T12:46:40;2.42;;;1.23;;
11653;SDS011;5883;48.818;9.114;2022-08-01T12:49:06;2.10;;;1.08;;
11653;SDS011;5883;48.818;9.114;2022-08-01T12:51:33;3.90;;;1.30;;
11653;SDS011;5883;48.818;9.114;2022-08-01T12:54:00;2.75;;;1.00;;
11653;SDS011;5883;48.818;9.114;2022-08-01T12:56:30;2.10;;;1.40;;
11653;SDS011;5883;48.818;9.114;2022-08-01T12:58:57;1.50;;;1.15;;
11653;SDS011;5883;48.818;9.114;2022-08-01T13:01:25;2.15;;;1.58;;
11653;SDS011;5883;48.818;9.114;2022-08-01T13:04:00;3.53;;;1.52;;
11653;SDS011;5883;48.818;9.114;2022-08-01T13:06:29;1.77;;;1.40;;
11653;SDS011;5883;48.818;9.114;2022-08-01T13:08:57;3.28;;;1.08;;
11653;SDS011;5883;48.818;9.114;2022-08-01T13:11:30;1.65;;;1.20;;
11653;SDS011;5883;48.818;9.114;2022-08-01T13:13:56;1.70;;;1.30;;
11653;SDS011;5883;48.818;9.114;2022-08-01T13:16:23;1.30;;;1.20;;
11653;SDS011;5883;48.818;9.114;2022-08-01T13:18:50;2.65;;;1.40;;
11653;SDS011;5883;48.818;9.114;2022-08-01T13:21:19;3.15;;;1.50;;
11653;SDS011;5883;48.818;9.114;2022-08-01T13:23:59;1.83;;;1.20;;
11653;SDS011;5883;48.818;9.114;2022-08-01T13:26:42;1.58;;;1.40;;
11653;SDS011;5883;48.818;9.114;2022-08-01T13:29:09;2.38;;;1.42;;
11653;SDS011;5883;48.818;9.114;2022-08-01T13:31:37;1.25;;;1.15;;
11653;SDS011;5883;48.818;9.114;2022-08-01T13:34:03;2.30;;;1.10;;
11653;SDS011;5883;48.818;9.114;2022-08-01T13:36:31;2.25;;;1.48;;
11653;SDS011;5883;48.818;9.114;2022-08-01T13:38:58;5.55;;;1.40;;
11653;SDS011;5883;48.818;9.114;2022-08-01T13:41:43;3.88;;;1.50;;
11653;SDS011;5883;48.818;9.114;2022-08-01T13:44:09;5.75;;;1.67;;
11653;SDS011;5883;48.818;9.114;2022-08-01T13:46:36;3.13;;;1.40;;
11653;SDS011;5883;48.818;9.114;2022-08-01T13:49:03;3.45;;;1.30;;
11653;SDS011;5883;48.818;9.114;2022-08-01T13:51:29;3.58;;;1.35;;
11653;SDS011;5883;48.818;9.114;2022-08-01T13:53:57;5.90;;;1.30;;
11653;SDS011;5883;48.818;9.114;2022-08-01T13:56:24;2.97;;;1.25;;
11653;SDS011;5883;48.818;9.114;2022-08-01T13:58:52;2.75;;;1.17;;
11653;SDS011;5883;48.818;9.114;2022-08-01T14:01:18;4.50;;;1.60;;
11653;SDS011;5883;48.818;9.114;2022-08-01T14:03:45;3.67;;;1.50;;
11653;SDS011;5883;48.818;9.114;2022-08-01T14:06:12;2.92;;;1.40;;
11653;SDS011;5883;48.818;9.114;2022-08-01T14:08:39;3.88;;;1.20;;
11653;SDS011;5883;48.818;9.114;2022-08-01T14:11:07;2.30;;;1.38;;
11653;SDS011;5883;48.818;9.114;2022-08-01T14:13:33;2.28;;;1.40;;
11653;SDS011;5883;48.818;9.114;2022-08-01T14:16:02;1.00;;;0.90;;
11653;SDS011;5883;48.818;9.114;2022-08-01T14:18:30;17.75;;;2.15;;
11653;SDS011;5883;48.818;9.114;2022-08-01T14:20:56;1.45;;;1.17;;
11653;SDS011;5883;48.818;9.114;2022-08-01T14:23:23;4.05;;;1.50;;
11653;SDS011;5883;48.818;9.114;2022-08-01T14:25:49;2.20;;;1.20;;
11653;SDS011;5883;48.818;9.114;2022-08-01T14:28:17;1.73;;;1.20;;
11653;SDS011;5883;48.818;9.114;2022-08-01T14:30:44;3.22;;;1.42;;
11653;SDS011;5883;48.818;9.114;2022-08-01T14:33:11;2.72;;;1.10;;
11653;SDS011;5883;48.818;9.114;2022-08-01T14:35:38;1.75;;;1.20;;
11653;SDS011;5883;48.818;9.114;2022-08-01T14:38:04;5.38;;;1.42;;
11653;SDS011;5883;48.818;9.114;2022-08-01T14:40:31;2.28;;;1.33;;
11653;SDS011;5883;48.818;9.114;2022-08-01T14:42:57;2.55;;;1.45;;
11653;SDS011;5883;48.818;9.114;2022-08-01T14:45:27;1.55;;;1.20;;
11653;SDS011;5883;48.818;9.114;2022-08-01T14:47:54;3.53;;;1.30;;
11653;SDS011;5883;48.818;9.114;2022-08-01T14:50:20;2.20;;;1.25;;
11653;SDS011;5883;48.818;9.114;2022-08-01T14:52:48;1.38;;;1.20;;
11653;SDS011;5883;48.818;9.114;2022-08-01T14:55:15;1.48;;;1.20;;
11653;SDS011;5883;48.818;9.114;2022-08-01T14:57:41;2.20;;;1.30;;
11653;SDS011;5883;48.818;9.114;2022-08-01T15:00:08;1.70;;;1.05;;
11653;SDS011;5883;48.818;9.114;2022-08-01T15:02:38;1.65;;;1.00;;
11653;SDS011;5883;48.818;9.114;2022-08-01T15:05:05;1.98;;;1.40;;
11653;SDS011;5883;48.818;9.114;2022-08-01T15:07:32;2.10;;;1.20;;
11653;SDS011;5883;48.818;9.114;2022-08-01T15:09:58;4.18;;;1.35;;
11653;SDS011;5883;48.818;9.114;2022-08-01T15:12:25;1.40;;;1.13;;
11653;SDS011;5883;48.818;9.114;2022-08-01T15:14:51;2.13;;;1.17;;
11653;SDS011;5883;48.818;9.114;2022-08-01T15:17:19;2.38;;;1.00;;
11653;SDS011;5883;48.818;9.114;2022-08-01T15:19:48;3.05;;;1.17;;